createdAt,value
2023-05-18T00:02:08.947Z,8.48
2023-05-18T00:04:41.714Z,8.50
2023-05-18T00:07:15.164Z,8.52
2023-05-18T00:09:47.924Z,8.51
2023-05-18T00:12:20.453Z,8.52
2023-05-18T00:14:53.510Z,8.52
2023-05-18T00:17:26.526Z,8.52
2023-05-18T00:19:59.026Z,8.51
2023-05-18T00:22:32.044Z,8.43
2023-05-18T00:25:04.978Z,8.43
2023-05-18T00:27:37.536Z,8.44
2023-05-18T00:30:11.773Z,8.43
2023-05-18T00:32:44.286Z,8.41
2023-05-18T00:35:17.707Z,8.45
2023-05-18T00:37:50.217Z,8.44
2023-05-18T00:40:23.569Z,8.44
2023-05-18T00:42:57.487Z,8.40
2023-05-18T00:45:30.728Z,8.42
2023-05-18T00:48:01.826Z,8.40
2023-05-18T00:50:34.539Z,8.37
2023-05-18T00:53:07.388Z,8.41
2023-05-18T00:55:40.132Z,8.41
2023-05-18T00:58:14.665Z,8.43
2023-05-18T01:00:47.559Z,8.40
2023-05-18T01:03:21.948Z,8.42
2023-05-18T01:05:58.457Z,8.38
2023-05-18T01:08:32.572Z,8.40
2023-05-18T01:11:13.868Z,8.41
2023-05-18T01:13:56.717Z,8.42
2023-05-18T01:16:34.712Z,8.42
2023-05-18T01:19:25.744Z,8.41
2023-05-18T01:22:09.661Z,8.40
2023-05-18T01:24:43.854Z,8.38
2023-05-18T01:27:18.104Z,8.36
2023-05-18T01:29:52.705Z,8.30
2023-05-18T01:32:26.708Z,8.32
2023-05-18T01:34:59.329Z,8.31
2023-05-18T01:37:32.182Z,8.31
2023-05-18T01:40:06.089Z,8.30
2023-05-18T01:42:39.899Z,8.25
2023-05-18T01:45:18.029Z,8.24
2023-05-18T01:47:55.343Z,8.26
2023-05-18T01:50:38.125Z,8.26
2023-05-18T01:53:21.693Z,8.27
2023-05-18T01:55:57.796Z,8.25
2023-05-18T01:58:30.745Z,8.23
2023-05-18T02:01:02.354Z,8.24
2023-05-18T02:03:38.682Z,8.17
2023-05-18T02:06:11.382Z,8.20
2023-05-18T02:08:44.455Z,8.17
2023-05-18T02:11:17.018Z,8.16
2023-05-18T02:13:49.668Z,8.16
2023-05-18T02:16:22.540Z,8.15
2023-05-18T02:18:55.197Z,8.12
2023-05-18T02:21:27.671Z,8.14
2023-05-18T02:24:00.389Z,8.14
2023-05-18T02:26:33.025Z,8.16
2023-05-18T02:29:06.691Z,8.14
2023-05-18T02:31:40.687Z,8.14
2023-05-18T02:34:13.398Z,8.18
2023-05-18T02:36:49.121Z,8.17
2023-05-18T02:39:23.122Z,8.15
2023-05-18T02:41:55.590Z,8.18
2023-05-18T02:44:28.164Z,8.13
2023-05-18T02:47:01.103Z,8.11
2023-05-18T02:49:33.806Z,8.10
2023-05-18T02:52:06.634Z,8.06
2023-05-18T02:54:39.336Z,8.05
2023-05-18T02:57:16.116Z,8.01
2023-05-18T02:59:56.207Z,8.00
2023-05-18T03:02:28.993Z,8.01
2023-05-18T03:05:01.727Z,7.97
2023-05-18T03:07:34.855Z,8.00
2023-05-18T03:10:09.439Z,7.98
2023-05-18T03:12:42.150Z,7.94
2023-05-18T03:15:16.608Z,7.96
2023-05-18T03:17:49.971Z,7.90
2023-05-18T03:20:23.528Z,7.87
2023-05-18T03:22:57.418Z,7.92
2023-05-18T03:25:30.878Z,7.92
2023-05-18T03:28:04.093Z,7.94
2023-05-18T03:30:37.477Z,7.91
2023-05-18T03:33:10.985Z,7.87
2023-05-18T03:35:43.498Z,7.85
2023-05-18T03:38:17.813Z,7.84
2023-05-18T03:40:54.170Z,7.80
2023-05-18T03:43:27.059Z,7.79
2023-05-18T03:46:00.008Z,7.77
2023-05-18T03:48:33.139Z,7.74
2023-05-18T03:51:06.609Z,7.74
2023-05-18T03:53:40.096Z,7.74
2023-05-18T03:56:13.734Z,7.73
2023-05-18T03:58:46.312Z,7.69
2023-05-18T04:01:20.496Z,7.69
2023-05-18T04:03:56.746Z,7.67
2023-05-18T04:06:31.807Z,7.67
2023-05-18T04:09:05.214Z,7.67
2023-05-18T04:11:36.227Z,7.63
2023-05-18T04:14:09.131Z,7.58
2023-05-18T04:16:41.929Z,7.64
2023-05-18T04:19:15.360Z,7.67
2023-05-18T04:21:49.232Z,7.69
2023-05-18T04:24:23.722Z,7.67
2023-05-18T04:26:56.631Z,7.68
2023-05-18T04:29:29.759Z,7.61
2023-05-18T04:32:02.996Z,7.58
2023-05-18T04:34:36.105Z,7.54
2023-05-18T04:37:10.886Z,7.49
2023-05-18T04:39:43.879Z,7.48
2023-05-18T04:42:19.101Z,7.44
2023-05-18T04:44:54.688Z,7.42
2023-05-18T04:47:27.546Z,7.40
2023-05-18T04:50:00.544Z,7.43
2023-05-18T04:52:37.364Z,7.45
2023-05-18T04:55:12.501Z,7.44
2023-05-18T04:57:45.344Z,7.48
2023-05-18T05:00:20.352Z,7.52
2023-05-18T05:02:54.891Z,7.54
2023-05-18T05:05:28.047Z,7.53
2023-05-18T05:08:02.347Z,7.48
2023-05-18T05:10:35.547Z,7.47
2023-05-18T05:13:09.644Z,7.49
2023-05-18T05:15:42.454Z,7.54
2023-05-18T05:18:15.369Z,7.58
2023-05-18T05:20:48.029Z,7.56
2023-05-18T05:23:22.293Z,7.50
2023-05-18T05:25:56.272Z,7.50
2023-05-18T05:28:29.367Z,7.40
2023-05-18T05:31:02.332Z,7.41
2023-05-18T05:33:34.822Z,7.27
2023-05-18T05:36:08.807Z,7.23
2023-05-18T05:38:42.613Z,7.25
2023-05-18T05:41:15.719Z,7.28
2023-05-18T05:43:48.768Z,7.32
2023-05-18T05:46:21.551Z,7.30
2023-05-18T05:48:54.198Z,7.32
2023-05-18T05:51:26.762Z,7.31
2023-05-18T05:53:59.746Z,7.36
2023-05-18T05:56:32.854Z,7.37
2023-05-18T05:59:06.551Z,7.40
2023-05-18T06:01:37.223Z,7.45
2023-05-18T06:04:12.958Z,7.44
2023-05-18T06:06:45.679Z,7.52
2023-05-18T06:09:19.005Z,7.53
2023-05-18T06:11:53.515Z,7.52
2023-05-18T06:14:26.613Z,7.50
2023-05-18T06:16:58.424Z,7.56
2023-05-18T06:19:33.832Z,7.54
2023-05-18T06:22:08.109Z,7.59
2023-05-18T06:24:49.024Z,7.65
2023-05-18T06:27:37.144Z,7.69
2023-05-18T06:30:41.890Z,7.69
2023-05-18T06:33:36.235Z,7.73
2023-05-18T06:36:10.597Z,7.74
2023-05-18T06:38:43.218Z,7.75
2023-05-18T06:41:16.269Z,7.74
2023-05-18T06:43:49.429Z,7.75
2023-05-18T06:46:28.221Z,7.77
2023-05-18T06:49:05.650Z,7.82
2023-05-18T06:51:38.434Z,7.80
2023-05-18T06:54:11.769Z,7.82
2023-05-18T06:56:44.622Z,7.83
2023-05-18T06:59:17.161Z,7.86
2023-05-18T07:01:49.911Z,7.84
2023-05-18T07:04:22.549Z,7.79
2023-05-18T07:06:56.373Z,7.81
2023-05-18T07:09:29.536Z,7.83
2023-05-18T07:12:02.649Z,7.91
2023-05-18T07:14:35.336Z,7.95
2023-05-18T07:17:08.754Z,8.01
2023-05-18T07:19:41.601Z,8.10
2023-05-18T07:22:14.250Z,8.10
2023-05-18T07:24:47.236Z,8.16
2023-05-18T07:27:19.599Z,8.18
2023-05-18T07:29:52.306Z,8.24
2023-05-18T07:32:25.290Z,8.31
2023-05-18T07:34:57.889Z,8.28
2023-05-18T07:37:31.068Z,8.36
2023-05-18T07:40:04.867Z,8.43
2023-05-18T07:42:37.881Z,8.48
2023-05-18T07:45:13.059Z,8.43
2023-05-18T07:47:45.704Z,8.39
2023-05-18T07:50:18.243Z,8.47
2023-05-18T07:52:50.762Z,8.55
2023-05-18T07:55:26.263Z,8.60
2023-05-18T07:58:01.397Z,8.55
2023-05-18T08:00:52.022Z,8.65
2023-05-18T08:03:42.065Z,8.64
2023-05-18T08:06:15.459Z,8.71
2023-05-18T08:08:48.118Z,8.73
2023-05-18T08:11:22.649Z,8.81
2023-05-18T08:13:55.331Z,8.82
2023-05-18T08:16:28.148Z,8.79
2023-05-18T08:19:01.388Z,8.79
2023-05-18T08:21:33.987Z,8.82
2023-05-18T08:24:08.595Z,8.82
2023-05-18T08:26:41.546Z,8.86
2023-05-18T08:29:16.396Z,8.77
2023-05-18T08:31:49.706Z,8.75
2023-05-18T08:34:20.830Z,8.68
2023-05-18T08:36:53.398Z,8.71
2023-05-18T08:39:26.416Z,8.79
2023-05-18T08:42:03.198Z,8.81
2023-05-18T08:44:46.069Z,8.86
2023-05-18T08:47:19.885Z,8.90
2023-05-18T08:49:57.666Z,8.93
2023-05-18T08:52:33.559Z,8.88
2023-05-18T08:55:12.132Z,8.90
2023-05-18T08:57:50.522Z,8.98
2023-05-18T09:00:24.646Z,9.03
2023-05-18T09:02:57.946Z,9.08
2023-05-18T09:05:30.828Z,9.13
2023-05-18T09:08:04.455Z,9.17
2023-05-18T09:10:37.830Z,9.21
2023-05-18T09:13:11.894Z,9.24
2023-05-18T09:15:44.990Z,9.28
2023-05-18T09:18:17.556Z,9.30
2023-05-18T09:37:53.807Z,9.35
2023-05-18T09:40:32.136Z,9.35
2023-05-18T09:43:13.475Z,9.30
2023-05-18T09:45:49.195Z,9.31
2023-05-18T09:48:25.173Z,9.32
2023-05-18T09:51:00.640Z,9.28
2023-05-18T09:53:33.677Z,9.24
2023-05-18T09:56:12.343Z,9.19
2023-05-18T09:58:45.247Z,9.22
2023-05-18T10:01:17.933Z,9.26
2023-05-18T10:03:50.773Z,9.29
2023-05-18T10:06:28.394Z,9.23
2023-05-18T10:09:04.427Z,9.29
2023-05-18T10:11:38.699Z,9.29
2023-05-18T10:14:16.390Z,9.31
2023-05-18T10:16:51.712Z,9.34
2023-05-18T10:19:32.030Z,9.33
2023-05-18T10:22:07.868Z,9.33
2023-05-18T10:24:44.309Z,9.31
2023-05-18T10:27:25.264Z,9.36
2023-05-18T10:29:59.598Z,9.41
2023-05-18T10:32:34.822Z,9.51
2023-05-18T10:35:09.627Z,9.56
2023-05-18T10:37:47.615Z,9.62
2023-05-18T10:40:21.731Z,9.62
2023-05-18T10:42:58.644Z,9.69
2023-05-18T10:45:34.993Z,9.77
2023-05-18T10:48:11.604Z,9.77
2023-05-18T10:50:46.001Z,9.81
2023-05-18T10:53:21.522Z,9.83
2023-05-18T10:55:55.052Z,9.92
2023-05-18T10:58:27.347Z,10.00
2023-05-18T11:01:01.351Z,9.91
2023-05-18T11:03:38.731Z,9.92
2023-05-18T11:06:13.447Z,9.93
2023-05-18T11:08:51.549Z,10.00
2023-05-18T11:11:30.339Z,10.03
2023-05-18T11:14:07.445Z,10.05
2023-05-18T11:16:43.673Z,10.10
2023-05-18T11:19:18.028Z,10.14
2023-05-18T11:21:57.078Z,10.20
2023-05-18T11:24:34.749Z,10.22
2023-05-18T11:27:16.691Z,10.24
2023-05-18T11:29:53.383Z,10.32
2023-05-18T11:32:33.305Z,10.36
2023-05-18T11:35:11.487Z,10.33
2023-05-18T11:37:53.148Z,10.33
2023-05-18T11:40:48.340Z,10.31
2023-05-18T11:43:28.088Z,10.35
2023-05-18T11:46:01.193Z,10.41
2023-05-18T11:48:35.277Z,10.45
2023-05-18T11:51:12.242Z,10.45
2023-05-18T11:53:45.268Z,10.42
2023-05-18T11:56:17.858Z,10.45
2023-05-18T11:59:10.675Z,10.47
2023-05-18T12:01:45.388Z,10.39
2023-05-18T12:04:18.887Z,10.39
2023-05-18T12:06:49.649Z,10.41
2023-05-18T12:09:26.026Z,10.32
2023-05-18T12:11:56.764Z,10.24
2023-05-18T12:14:31.407Z,10.17
2023-05-18T12:17:05.985Z,10.18
2023-05-18T12:19:48.904Z,10.16
2023-05-18T12:22:21.797Z,10.12
2023-05-18T12:24:56.318Z,10.17
2023-05-18T12:27:29.635Z,10.18
2023-05-18T12:30:02.361Z,10.17
2023-05-18T12:32:35.198Z,10.11
2023-05-18T12:35:09.225Z,10.04
2023-05-18T12:37:47.430Z,10.05
2023-05-18T12:40:21.276Z,10.12
2023-05-18T12:42:58.601Z,10.12
2023-05-18T12:45:33.675Z,10.14
2023-05-18T12:48:10.157Z,10.07
2023-05-18T12:50:51.069Z,10.02
2023-05-18T12:53:27.040Z,9.95
2023-05-18T12:56:04.679Z,9.96
2023-05-18T12:58:37.219Z,9.97
2023-05-18T13:01:13.215Z,9.96
2023-05-18T13:03:46.127Z,9.91
2023-05-18T13:06:22.336Z,9.81
2023-05-18T13:08:58.686Z,9.79
2023-05-18T13:11:31.232Z,9.68
2023-05-18T13:14:08.591Z,9.72
2023-05-18T13:16:46.952Z,9.72
2023-05-18T13:19:20.671Z,9.74
2023-05-18T13:21:59.505Z,9.76
2023-05-18T13:24:32.516Z,9.65
2023-05-18T13:27:05.382Z,9.70
2023-05-18T13:29:37.877Z,9.70
2023-05-18T13:35:34.671Z,9.65
2023-05-18T13:38:07.600Z,9.65
2023-05-18T13:40:40.719Z,9.62
2023-05-18T13:43:14.009Z,9.59
2023-05-18T13:45:45.256Z,9.63
2023-05-18T13:48:18.560Z,9.59
2023-05-18T13:50:51.490Z,9.61
2023-05-18T13:53:30.323Z,9.60
2023-05-18T13:56:03.248Z,9.63
2023-05-18T13:58:36.480Z,9.63
2023-05-18T14:01:12.751Z,9.62
2023-05-18T14:03:46.631Z,9.64
2023-05-18T14:06:23.157Z,9.62
2023-05-18T14:08:55.989Z,9.62
2023-05-18T14:11:28.858Z,9.65
2023-05-18T14:14:01.361Z,9.72
2023-05-18T14:16:33.954Z,9.71
2023-05-18T14:19:08.898Z,9.73
2023-05-18T14:21:41.871Z,9.80
2023-05-18T14:24:15.649Z,9.86
2023-05-18T14:26:48.407Z,9.83
2023-05-18T14:29:20.905Z,9.89
2023-05-18T14:31:56.314Z,9.91
2023-05-18T14:34:29.385Z,9.82
2023-05-18T14:37:02.373Z,9.86
2023-05-18T14:39:36.332Z,9.85
2023-05-18T14:42:10.178Z,9.90
2023-05-18T14:44:43.489Z,9.94
2023-05-18T14:47:17.498Z,9.93
2023-05-18T14:49:50.146Z,9.92
2023-05-18T14:52:23.377Z,9.96
2023-05-18T14:54:55.950Z,9.89
2023-05-18T14:57:28.624Z,9.82
2023-05-18T15:00:02.527Z,9.76
2023-05-18T15:02:35.679Z,9.66
2023-05-18T15:05:09.839Z,9.65
2023-05-18T15:07:42.653Z,9.66
2023-05-18T15:10:16.308Z,9.65
2023-05-18T15:12:47.356Z,9.68
2023-05-18T15:15:23.247Z,9.59
2023-05-18T15:17:57.636Z,9.55
2023-05-18T15:20:39.879Z,9.54
2023-05-18T15:23:15.510Z,9.55
2023-05-18T15:25:49.425Z,9.51
2023-05-18T15:28:23.158Z,9.48
2023-05-18T15:30:56.244Z,9.46
2023-05-18T15:33:27.279Z,9.47
2023-05-18T15:36:00.225Z,9.39
2023-05-18T15:38:33.108Z,9.37
2023-05-18T15:41:08.976Z,9.36
2023-05-18T15:43:42.128Z,9.30
2023-05-18T15:46:16.041Z,9.33
2023-05-18T15:48:49.128Z,9.35
2023-05-18T15:51:21.845Z,9.38
2023-05-18T15:53:56.297Z,9.42
2023-05-18T15:56:29.189Z,9.44
2023-05-18T15:59:01.676Z,9.44
2023-05-18T16:01:34.595Z,9.44
2023-05-18T16:04:07.766Z,9.41
2023-05-18T16:06:40.769Z,9.43
2023-05-18T16:09:13.980Z,9.45
2023-05-18T16:11:50.538Z,9.44
2023-05-18T16:14:23.346Z,9.44
2023-05-18T16:16:55.911Z,9.38
2023-05-18T16:19:29.057Z,9.40
2023-05-18T16:22:05.536Z,9.40
2023-05-18T16:24:40.685Z,9.37
2023-05-18T16:27:13.983Z,9.36
2023-05-18T16:29:46.959Z,9.34
2023-05-18T16:32:19.610Z,9.33
2023-05-18T16:34:52.178Z,9.35
2023-05-18T16:37:25.364Z,9.29
2023-05-18T16:39:59.471Z,9.20
2023-05-18T16:42:32.299Z,9.17
2023-05-18T16:45:05.631Z,9.13
2023-05-18T16:47:40.918Z,9.12
2023-05-18T16:50:16.602Z,9.13
2023-05-18T16:52:53.449Z,9.14
2023-05-18T16:55:26.308Z,9.14
2023-05-18T16:57:59.211Z,9.13
2023-05-18T17:00:33.926Z,9.08
2023-05-18T17:03:07.017Z,9.08
2023-05-18T17:05:40.165Z,9.12
2023-05-18T17:08:12.830Z,9.12
2023-05-18T17:10:46.057Z,9.13
2023-05-18T17:13:18.575Z,9.19
2023-05-18T17:15:51.317Z,9.19
2023-05-18T17:18:23.679Z,9.18
2023-05-18T17:20:56.452Z,9.18
2023-05-18T17:23:28.927Z,9.19
2023-05-18T17:26:06.727Z,9.22
2023-05-18T17:28:39.513Z,9.22
2023-05-18T17:31:12.307Z,9.16
2023-05-18T17:33:47.689Z,9.13
2023-05-18T17:36:20.248Z,9.15
2023-05-18T17:38:53.264Z,9.16
2023-05-18T17:41:26.195Z,9.16
2023-05-18T17:43:59.095Z,9.16
2023-05-18T17:46:32.091Z,9.16
2023-05-18T17:49:05.383Z,9.16
2023-05-18T17:51:38.347Z,9.18
2023-05-18T17:54:11.742Z,9.20
2023-05-18T17:56:49.117Z,9.21
2023-05-18T17:59:24.468Z,9.18
2023-05-18T18:01:57.177Z,9.15
2023-05-18T18:04:29.603Z,9.15
2023-05-18T18:07:02.014Z,9.17
2023-05-18T18:09:34.917Z,9.16
2023-05-18T18:12:08.233Z,9.16
2023-05-18T18:14:39.416Z,9.18
2023-05-18T18:17:12.068Z,9.11
2023-05-18T18:19:46.614Z,9.11
2023-05-18T18:22:19.742Z,9.10
2023-05-18T18:24:52.837Z,9.11
2023-05-18T18:27:27.152Z,9.10
2023-05-18T18:30:01.979Z,9.09
2023-05-18T18:56:50.195Z,9.04
2023-05-18T18:59:23.325Z,9.04
2023-05-18T19:01:55.991Z,9.04
2023-05-18T19:04:29.977Z,9.03
2023-05-18T19:07:05.141Z,9.03
2023-05-18T19:09:38.630Z,9.00
2023-05-18T19:12:13.063Z,9.00
2023-05-18T19:14:48.087Z,8.97
2023-05-18T19:17:21.613Z,8.97
2023-05-18T19:19:54.764Z,8.95
2023-05-18T19:22:28.052Z,8.92
2023-05-18T19:25:00.926Z,8.93
2023-05-18T19:27:38.768Z,8.90
2023-05-18T19:30:16.951Z,8.88
2023-05-18T19:32:51.103Z,8.90
2023-05-18T19:35:25.252Z,8.90
2023-05-18T19:37:58.013Z,8.87
2023-05-18T19:40:30.773Z,8.90
2023-05-18T19:43:06.259Z,8.91
2023-05-18T19:45:42.766Z,8.91
2023-05-18T19:48:15.908Z,8.95
2023-05-18T19:50:49.107Z,8.95
2023-05-18T19:53:24.117Z,8.93
2023-05-18T19:55:57.213Z,8.94
2023-05-18T19:58:30.207Z,8.95
2023-05-18T20:01:03.444Z,8.95
2023-05-18T20:03:39.585Z,8.93
2023-05-18T20:06:14.276Z,8.96
2023-05-18T20:08:48.400Z,8.98
2023-05-18T20:11:22.147Z,8.96
2023-05-18T20:13:56.842Z,8.97
2023-05-18T20:16:29.827Z,8.95
2023-05-18T20:19:05.112Z,8.95
2023-05-18T20:21:38.749Z,8.95
2023-05-18T20:24:10.080Z,8.94
2023-05-18T20:26:42.765Z,8.89
2023-05-18T20:29:15.924Z,8.93
2023-05-18T20:31:48.659Z,8.94
2023-05-18T20:34:21.357Z,8.97
2023-05-18T20:36:54.094Z,9.00
2023-05-18T20:39:29.218Z,9.02
2023-05-18T20:42:03.514Z,9.01
2023-05-18T20:44:38.274Z,9.01
2023-05-18T20:47:11.626Z,9.00
2023-05-18T20:49:44.307Z,9.00
2023-05-18T20:52:17.481Z,8.99
2023-05-18T20:54:50.644Z,8.98
2023-05-18T20:57:28.101Z,8.97
2023-05-18T21:00:00.589Z,8.93
2023-05-18T21:02:34.039Z,8.91
2023-05-18T21:05:11.666Z,8.91
2023-05-18T21:07:47.067Z,8.84
2023-05-18T21:10:20.446Z,8.84
2023-05-18T21:12:51.439Z,8.84
2023-05-18T21:15:24.270Z,8.76
2023-05-18T21:17:57.016Z,8.77
2023-05-18T21:20:30.039Z,8.74
2023-05-18T21:23:02.820Z,8.70
2023-05-18T21:25:35.489Z,8.68
2023-05-18T21:28:09.600Z,8.67
2023-05-18T21:30:42.301Z,8.64
2023-05-18T21:33:15.395Z,8.61
2023-05-18T21:35:48.099Z,8.59
2023-05-18T21:38:20.571Z,8.55
2023-05-18T21:40:53.192Z,8.49
2023-05-18T21:43:26.004Z,8.47
2023-05-18T21:45:58.525Z,8.45
2023-05-18T21:48:31.201Z,8.44
2023-05-18T21:51:04.580Z,8.42
2023-05-18T21:53:37.055Z,8.40
2023-05-18T21:56:10.324Z,8.39
2023-05-18T21:58:42.913Z,8.40
2023-05-18T22:01:19.989Z,8.38
2023-05-18T22:03:52.779Z,8.38
2023-05-18T22:06:26.144Z,8.39
